sensor_id;sensor_type;location;lat;lon;timestamp;pressure;altitude;pressure_sealevel;temperature;humidity
81397;BME280;70852;49.908;8.126;2024-03-23T00:53:52;99418.34;;;7.60;82.86
81397;BME280;70852;49.908;8.126;2024-03-23T00:56:20;99409.13;;;7.65;82.51
81397;BME280;70852;49.908;8.126;2024-03-23T00:58:45;99392.50;;;7.61;82.92
81397;BME280;70852;49.908;8.126;2024-03-23T01:01:11;99398.47;;;7.63;82.80
81397;BME280;70852;49.908;8.126;2024-03-23T01:03:36;99399.13;;;7.69;82.37
81397;BME280;70852;49.908;8.126;2024-03-23T01:06:02;99396.22;;;7.74;82.59
81397;BME280;70852;49.908;8.126;2024-03-23T01:08:28;99396.19;;;7.65;82.78
81397;BME280;70852;49.908;8.126;2024-03-23T01:10:57;99400.25;;;7.51;82.64
81397;BME280;70852;49.908;8.126;2024-03-23T01:13:23;99398.31;;;7.51;82.79
81397;BME280;70852;49.908;8.126;2024-03-23T01:15:57;99397.94;;;7.53;83.27
81397;BME280;70852;49.908;8.126;2024-03-23T01:18:23;99388.44;;;7.59;82.70
81397;BME280;70852;49.908;8.126;2024-03-23T01:20:51;99381.66;;;7.56;82.79
81397;BME280;70852;49.908;8.126;2024-03-23T01:23:16;99375.84;;;7.66;83.01
81397;BME280;70852;49.908;8.126;2024-03-23T01:25:42;99374.72;;;7.59;83.17
81397;BME280;70852;49.908;8.126;2024-03-23T01:28:07;99367.41;;;7.54;82.80
81397;BME280;70852;49.908;8.126;2024-03-23T01:30:34;99371.16;;;7.50;83.17
81397;BME280;70852;49.908;8.126;2024-03-23T01:33:02;99366.59;;;7.54;83.29
81397;BME280;70852;49.908;8.126;2024-03-23T01:35:30;99361.59;;;7.47;82.97
81397;BME280;70852;49.908;8.126;2024-03-23T01:37:58;99362.91;;;7.58;83.02
81397;BME280;70852;49.908;8.126;2024-03-23T01:40:23;99360.16;;;7.58;82.97
81397;BME280;70852;49.908;8.126;2024-03-23T01:42:58;99344.31;;;7.55;83.09
81397;BME280;70852;49.908;8.126;2024-03-23T01:45:26;99348.34;;;7.49;82.92
81397;BME280;70852;49.908;8.126;2024-03-23T01:47:52;99340.25;;;7.53;83.05
81397;BME280;70852;49.908;8.126;2024-03-23T01:50:20;99339.31;;;7.49;83.00
81397;BME280;70852;49.908;8.126;2024-03-23T01:52:48;99340.56;;;7.43;82.98
81397;BME280;70852;49.908;8.126;2024-03-23T01:55:18;99334.94;;;7.48;83.46
81397;BME280;70852;49.908;8.126;2024-03-23T01:57:46;99328.13;;;7.54;83.07
81397;BME280;70852;49.908;8.126;2024-03-23T02:00:12;99332.38;;;7.60;83.03
81397;BME280;70852;49.908;8.126;2024-03-23T02:02:47;99316.69;;;7.60;82.85
81397;BME280;70852;49.908;8.126;2024-03-23T02:05:15;99317.63;;;7.56;82.72
81397;BME280;70852;49.908;8.126;2024-03-23T02:07:41;99310.84;;;7.53;83.01
81397;BME280;70852;49.908;8.126;2024-03-23T02:10:08;99307.28;;;7.53;83.23
81397;BME280;70852;49.908;8.126;2024-03-23T02:12:38;99302.28;;;7.55;83.32
81397;BME280;70852;49.908;8.126;2024-03-23T02:15:06;99298.25;;;7.52;82.97
81397;BME280;70852;49.908;8.126;2024-03-23T02:17:34;99294.34;;;7.53;83.30
81397;BME280;70852;49.908;8.126;2024-03-23T02:20:00;99295.66;;;7.56;83.19
81397;BME280;70852;49.908;8.126;2024-03-23T02:22:25;99298.09;;;7.57;82.94
81397;BME280;70852;49.908;8.126;2024-03-23T02:25:01;99296.16;;;7.58;83.49
81397;BME280;70852;49.908;8.126;2024-03-23T02:27:27;99297.59;;;7.55;83.58
81397;BME280;70852;49.908;8.126;2024-03-23T02:29:53;99293.22;;;7.54;83.83
81397;BME280;70852;49.908;8.126;2024-03-23T02:32:21;99288.09;;;7.61;83.70
81397;BME280;70852;49.908;8.126;2024-03-23T02:34:48;99279.81;;;7.70;83.60
81397;BME280;70852;49.908;8.126;2024-03-23T02:37:14;99268.66;;;7.66;83.83
81397;BME280;70852;49.908;8.126;2024-03-23T02:39:39;99267.69;;;7.54;83.54
81397;BME280;70852;49.908;8.126;2024-03-23T02:42:04;99281.13;;;7.55;83.61
81397;BME280;70852;49.908;8.126;2024-03-23T02:44:30;99273.19;;;7.54;83.52
81397;BME280;70852;49.908;8.126;2024-03-23T02:46:55;99269.97;;;7.52;83.68
81397;BME280;70852;49.908;8.126;2024-03-23T02:49:23;99260.59;;;7.53;83.77
81397;BME280;70852;49.908;8.126;2024-03-23T02:51:48;99269.31;;;7.55;83.70
81397;BME280;70852;49.908;8.126;2024-03-23T02:54:18;99269.47;;;7.67;83.57
81397;BME280;70852;49.908;8.126;2024-03-23T02:56:46;99247.81;;;7.65;83.59
81397;BME280;70852;49.908;8.126;2024-03-23T02:59:11;99237.81;;;7.61;83.74
81397;BME280;70852;49.908;8.126;2024-03-23T03:01:36;99254.28;;;7.61;84.51
81397;BME280;70852;49.908;8.126;2024-03-23T03:04:04;99246.03;;;7.69;84.16
81397;BME280;70852;49.908;8.126;2024-03-23T03:06:30;99243.78;;;7.71;84.03
81397;BME280;70852;49.908;8.126;2024-03-23T03:09:00;99242.66;;;7.72;83.70
81397;BME280;70852;49.908;8.126;2024-03-23T03:11:28;99236.97;;;7.69;84.12
81397;BME280;70852;49.908;8.126;2024-03-23T03:13:54;99240.22;;;7.71;84.23
81397;BME280;70852;49.908;8.126;2024-03-23T03:16:22;99235.66;;;7.75;84.23
81397;BME280;70852;49.908;8.126;2024-03-23T03:18:47;99243.78;;;7.71;84.37
81397;BME280;70852;49.908;8.126;2024-03-23T03:21:17;99242.16;;;7.70;84.28
81397;BME280;70852;49.908;8.126;2024-03-23T03:23:44;99238.41;;;7.75;84.77
81397;BME280;70852;49.908;8.126;2024-03-23T03:26:11;99238.53;;;7.96;85.93
81397;BME280;70852;49.908;8.126;2024-03-23T03:28:37;99236.84;;;8.21;85.36
81397;BME280;70852;49.908;8.126;2024-03-23T03:31:02;99242.31;;;8.29;85.12
81397;BME280;70852;49.908;8.126;2024-03-23T03:33:28;99239.41;;;8.43;85.18
81397;BME280;70852;49.908;8.126;2024-03-23T03:35:54;99243.34;;;8.63;84.09
81397;BME280;70852;49.908;8.126;2024-03-23T03:38:21;99246.69;;;8.77;83.51
81397;BME280;70852;49.908;8.126;2024-03-23T03:40:49;99252.53;;;8.75;83.92
81397;BME280;70852;49.908;8.126;2024-03-23T03:43:17;99254.25;;;8.80;83.64
81397;BME280;70852;49.908;8.126;2024-03-23T03:45:51;99260.56;;;8.80;83.76
81397;BME280;70852;49.908;8.126;2024-03-23T03:48:16;99268.31;;;8.87;83.83
81397;BME280;70852;49.908;8.126;2024-03-23T03:50:41;99285.78;;;8.91;83.79
81397;BME280;70852;49.908;8.126;2024-03-23T03:53:09;99283.06;;;8.82;85.11
81397;BME280;70852;49.908;8.126;2024-03-23T03:55:34;99285.59;;;8.67;86.00
81397;BME280;70852;49.908;8.126;2024-03-23T03:58:07;99297.19;;;8.43;86.28
81397;BME280;70852;49.908;8.126;2024-03-23T04:00:32;99312.28;;;8.11;87.37
81397;BME280;70852;49.908;8.126;2024-03-23T04:03:00;99319.06;;;7.96;87.59
81397;BME280;70852;49.908;8.126;2024-03-23T04:05:26;99316.69;;;7.69;87.31
81397;BME280;70852;49.908;8.126;2024-03-23T04:07:51;99321.69;;;7.50;86.65
81397;BME280;70852;49.908;8.126;2024-03-23T04:10:21;99315.53;;;7.35;87.06
81397;BME280;70852;49.908;8.126;2024-03-23T04:12:47;99318.44;;;7.30;87.92
81397;BME280;70852;49.908;8.126;2024-03-23T04:15:13;99330.22;;;7.31;88.04
81397;BME280;70852;49.908;8.126;2024-03-23T04:17:38;99322.44;;;7.16;87.82
81397;BME280;70852;49.908;8.126;2024-03-23T04:20:10;99314.69;;;7.18;88.50
81397;BME280;70852;49.908;8.126;2024-03-23T04:22:39;99316.78;;;7.12;88.95
81397;BME280;70852;49.908;8.126;2024-03-23T04:25:05;99325.69;;;7.18;88.66
81397;BME280;70852;49.908;8.126;2024-03-23T04:27:37;99335.06;;;7.17;89.02
81397;BME280;70852;49.908;8.126;2024-03-23T04:30:03;99347.66;;;7.18;88.77
81397;BME280;70852;49.908;8.126;2024-03-23T04:32:30;99346.34;;;7.15;88.54
81397;BME280;70852;49.908;8.126;2024-03-23T04:35:01;99348.41;;;7.01;88.46
81397;BME280;70852;49.908;8.126;2024-03-23T04:37:28;99347.75;;;6.95;88.30
81397;BME280;70852;49.908;8.126;2024-03-23T04:39:56;99361.38;;;6.78;87.95
81397;BME280;70852;49.908;8.126;2024-03-23T04:42:21;99364.47;;;6.77;87.74
81397;BME280;70852;49.908;8.126;2024-03-23T04:44:49;99364.94;;;6.79;87.64
81397;BME280;70852;49.908;8.126;2024-03-23T04:47:17;99365.59;;;6.76;87.81
81397;BME280;70852;49.908;8.126;2024-03-23T04:49:43;99382.69;;;6.73;88.22
81397;BME280;70852;49.908;8.126;2024-03-23T04:52:13;99382.94;;;6.63;86.66
81397;BME280;70852;49.908;8.126;2024-03-23T04:54:41;99384.56;;;6.64;87.60
81397;BME280;70852;49.908;8.126;2024-03-23T04:57:09;99395.88;;;6.62;86.38
81397;BME280;70852;49.908;8.126;2024-03-23T04:59:36;99410.34;;;6.54;85.61
81397;BME280;70852;49.908;8.126;2024-03-23T05:02:02;99411.59;;;6.48;86.12
81397;BME280;70852;49.908;8.126;2024-03-23T05:04:28;99421.38;;;6.40;86.00
81397;BME280;70852;49.908;8.126;2024-03-23T05:06:55;99418.63;;;6.40;86.14
81397;BME280;70852;49.908;8.126;2024-03-23T05:09:23;99419.75;;;6.39;86.56
81397;BME280;70852;49.908;8.126;2024-03-23T05:11:48;99416.50;;;6.37;86.17
81397;BME280;70852;49.908;8.126;2024-03-23T05:14:14;99440.38;;;6.37;86.96
81397;BME280;70852;49.908;8.126;2024-03-23T05:16:42;99446.69;;;6.37;86.39
81397;BME280;70852;49.908;8.126;2024-03-23T05:19:07;99442.81;;;6.38;86.37
81397;BME280;70852;49.908;8.126;2024-03-23T05:21:33;99436.66;;;6.33;85.35
81397;BME280;70852;49.908;8.126;2024-03-23T05:23:58;99438.28;;;6.34;85.90
81397;BME280;70852;49.908;8.126;2024-03-23T05:26:28;99426.66;;;6.37;85.86
81397;BME280;70852;49.908;8.126;2024-03-23T05:28:54;99427.13;;;6.30;85.03
81397;BME280;70852;49.908;8.126;2024-03-23T05:31:39;99438.69;;;6.27;84.62
81397;BME280;70852;49.908;8.126;2024-03-23T05:34:08;99459.66;;;6.23;84.66
81397;BME280;70852;49.908;8.126;2024-03-23T05:36:34;99474.66;;;6.25;85.13
81397;BME280;70852;49.908;8.126;2024-03-23T05:38:59;99482.56;;;6.27;85.54
81397;BME280;70852;49.908;8.126;2024-03-23T05:41:24;99482.06;;;6.25;85.25
81397;BME280;70852;49.908;8.126;2024-03-23T05:43:50;99493.16;;;6.20;84.39
81397;BME280;70852;49.908;8.126;2024-03-23T05:46:15;99495.22;;;6.14;84.66
81397;BME280;70852;49.908;8.126;2024-03-23T05:48:40;99498.59;;;6.11;84.79
81397;BME280;70852;49.908;8.126;2024-03-23T05:51:05;99482.81;;;6.17;84.95
81397;BME280;70852;49.908;8.126;2024-03-23T05:53:34;99484.63;;;6.21;84.69
81397;BME280;70852;49.908;8.126;2024-03-23T05:56:01;99494.28;;;6.19;84.51
81397;BME280;70852;49.908;8.126;2024-03-23T05:58:31;99502.44;;;6.10;82.81
81397;BME280;70852;49.908;8.126;2024-03-23T06:01:01;99511.09;;;6.04;82.00
81397;BME280;70852;49.908;8.126;2024-03-23T06:03:27;99529.56;;;5.98;83.08
81397;BME280;70852;49.908;8.126;2024-03-23T06:05:52;99534.75;;;6.00;83.38
81397;BME280;70852;49.908;8.126;2024-03-23T06:08:25;99523.06;;;6.08;84.04
81397;BME280;70852;49.908;8.126;2024-03-23T06:10:51;99523.44;;;6.15;84.44
81397;BME280;70852;49.908;8.126;2024-03-23T06:13:16;99553.19;;;6.21;84.20
81397;BME280;70852;49.908;8.126;2024-03-23T06:15:44;99571.78;;;6.11;81.85
81397;BME280;70852;49.908;8.126;2024-03-23T06:18:13;99587.13;;;6.12;83.15
81397;BME280;70852;49.908;8.126;2024-03-23T06:20:39;99601.00;;;6.15;82.82
81397;BME280;70852;49.908;8.126;2024-03-23T06:23:07;99607.94;;;5.99;81.75
81397;BME280;70852;49.908;8.126;2024-03-23T06:25:37;99617.75;;;5.86;81.32
81397;BME280;70852;49.908;8.126;2024-03-23T06:28:02;99623.44;;;5.76;81.43
81397;BME280;70852;49.908;8.126;2024-03-23T06:30:32;99633.66;;;5.57;82.32
81397;BME280;70852;49.908;8.126;2024-03-23T06:32:58;99641.34;;;5.55;82.38
81397;BME280;70852;49.908;8.126;2024-03-23T06:35:25;99635.19;;;5.63;83.06
81397;BME280;70852;49.908;8.126;2024-03-23T06:37:53;99638.94;;;5.67;82.64
81397;BME280;70852;49.908;8.126;2024-03-23T06:40:18;99627.59;;;5.74;81.64
81397;BME280;70852;49.908;8.126;2024-03-23T06:42:46;99621.28;;;5.73;81.72
81397;BME280;70852;49.908;8.126;2024-03-23T06:45:13;99626.97;;;5.63;81.95
81397;BME280;70852;49.908;8.126;2024-03-23T06:47:41;99631.44;;;5.59;81.58
81397;BME280;70852;49.908;8.126;2024-03-23T06:50:06;99644.84;;;5.61;82.87
81397;BME280;70852;49.908;8.126;2024-03-23T06:52:32;99641.75;;;5.62;81.58
81397;BME280;70852;49.908;8.126;2024-03-23T06:54:59;99640.69;;;5.77;80.41
81397;BME280;70852;49.908;8.126;2024-03-23T06:57:31;99641.13;;;5.98;80.05
81397;BME280;70852;49.908;8.126;2024-03-23T06:59:59;99643.44;;;6.04;78.42
81397;BME280;70852;49.908;8.126;2024-03-23T07:02:26;99644.47;;;6.08;78.16
81397;BME280;70852;49.908;8.126;2024-03-23T07:04:52;99658.69;;;6.24;78.87
81397;BME280;70852;49.908;8.126;2024-03-23T07:07:17;99672.09;;;6.12;78.68
81397;BME280;70852;49.908;8.126;2024-03-23T07:09:42;99694.03;;;6.12;79.40
81397;BME280;70852;49.908;8.126;2024-03-23T07:12:10;99699.09;;;6.05;78.76
81397;BME280;70852;49.908;8.126;2024-03-23T07:14:39;99709.56;;;6.03;80.29
81397;BME280;70852;49.908;8.126;2024-03-23T07:17:07;99715.28;;;5.87;79.76
81397;BME280;70852;49.908;8.126;2024-03-23T07:19:36;99722.44;;;5.88;80.06
81397;BME280;70852;49.908;8.126;2024-03-23T07:22:03;99719.50;;;5.99;80.38
81397;BME280;70852;49.908;8.126;2024-03-23T07:24:33;99720.81;;;6.15;80.15
81397;BME280;70852;49.908;8.126;2024-03-23T07:27:01;99725.59;;;6.37;78.46
81397;BME280;70852;49.908;8.126;2024-03-23T07:29:28;99717.69;;;6.49;77.88
81397;BME280;70852;49.908;8.126;2024-03-23T07:31:56;99714.63;;;6.64;78.63
81397;BME280;70852;49.908;8.126;2024-03-23T07:34:21;99724.44;;;6.79;77.64
81397;BME280;70852;49.908;8.126;2024-03-23T07:36:46;99741.09;;;6.96;76.63
81397;BME280;70852;49.908;8.126;2024-03-23T07:39:14;99735.84;;;6.86;76.30
81397;BME280;70852;49.908;8.126;2024-03-23T07:41:44;99742.44;;;6.98;75.58
81397;BME280;70852;49.908;8.126;2024-03-23T07:44:10;99749.81;;;7.12;75.89
81397;BME280;70852;49.908;8.126;2024-03-23T07:46:35;99750.34;;;7.00;75.65
81397;BME280;70852;49.908;8.126;2024-03-23T07:49:04;99749.91;;;7.87;73.74
81397;BME280;70852;49.908;8.126;2024-03-23T07:51:29;99750.91;;;8.53;70.53
81397;BME280;70852;49.908;8.126;2024-03-23T07:53:57;99754.25;;;8.41;70.13
81397;BME280;70852;49.908;8.126;2024-03-23T07:56:25;99751.69;;;9.10;67.68
81397;BME280;70852;49.908;8.126;2024-03-23T07:58:50;99742.59;;;10.43;63.60
81397;BME280;70852;49.908;8.126;2024-03-23T08:01:17;99751.78;;;10.85;61.85
81397;BME280;70852;49.908;8.126;2024-03-23T08:03:43;99740.19;;;10.33;63.09
81397;BME280;70852;49.908;8.126;2024-03-23T08:08:35;99744.94;;;11.95;58.18
81397;BME280;70852;49.908;8.126;2024-03-23T08:11:00;99747.22;;;12.87;56.43
81397;BME280;70852;49.908;8.126;2024-03-23T08:13:26;99756.56;;;12.45;55.23
81397;BME280;70852;49.908;8.126;2024-03-23T08:15:52;99756.69;;;11.92;56.34
81397;BME280;70852;49.908;8.126;2024-03-23T08:18:20;99761.69;;;11.57;57.77
81397;BME280;70852;49.908;8.126;2024-03-23T08:20:46;99752.22;;;10.95;58.69
81397;BME280;70852;49.908;8.126;2024-03-23T08:23:13;99765.47;;;11.11;61.46
81397;BME280;70852;49.908;8.126;2024-03-23T08:25:39;99760.88;;;11.56;57.81
81397;BME280;70852;49.908;8.126;2024-03-23T08:28:06;99743.16;;;12.23;56.27
81397;BME280;70852;49.908;8.126;2024-03-23T08:30:34;99747.22;;;12.38;55.92
81397;BME280;70852;49.908;8.126;2024-03-23T08:33:00;99738.09;;;12.25;55.76
81397;BME280;70852;49.908;8.126;2024-03-23T08:35:25;99729.38;;;13.36;52.39
81397;BME280;70852;49.908;8.126;2024-03-23T08:37:52;99724.88;;;14.78;50.84
81397;BME280;70852;49.908;8.126;2024-03-23T08:40:20;99729.22;;;12.68;53.68
81397;BME280;70852;49.908;8.126;2024-03-23T08:42:45;99736.47;;;13.22;52.61
81397;BME280;70852;49.908;8.126;2024-03-23T08:45:10;99751.06;;;12.00;54.50
81397;BME280;70852;49.908;8.126;2024-03-23T08:47:38;99743.28;;;11.61;55.11
81397;BME280;70852;49.908;8.126;2024-03-23T08:50:03;99745.38;;;12.66;54.84
81397;BME280;70852;49.908;8.126;2024-03-23T08:52:29;99747.84;;;12.10;54.09
81397;BME280;70852;49.908;8.126;2024-03-23T08:54:55;99758.44;;;11.55;56.51
81397;BME280;70852;49.908;8.126;2024-03-23T08:57:23;99759.13;;;12.99;50.53
81397;BME280;70852;49.908;8.126;2024-03-23T08:59:48;99769.28;;;12.83;49.00
81397;BME280;70852;49.908;8.126;2024-03-23T09:02:16;99757.03;;;12.84;49.87
81397;BME280;70852;49.908;8.126;2024-03-23T09:04:42;99753.19;;;14.37;46.72
81397;BME280;70852;49.908;8.126;2024-03-23T09:07:12;99746.66;;;15.27;43.83
81397;BME280;70852;49.908;8.126;2024-03-23T09:09:42;99747.75;;;14.87;44.03
81397;BME280;70852;49.908;8.126;2024-03-23T09:12:07;99748.34;;;15.31;43.76
81397;BME280;70852;49.908;8.126;2024-03-23T09:14:35;99748.47;;;16.58;42.35
81397;BME280;70852;49.908;8.126;2024-03-23T09:17:05;99763.28;;;16.39;42.40
81397;BME280;70852;49.908;8.126;2024-03-23T09:19:30;99761.22;;;17.04;40.24
81397;BME280;70852;49.908;8.126;2024-03-23T09:21:56;99759.56;;;16.54;40.88
81397;BME280;70852;49.908;8.126;2024-03-23T09:24:21;99760.06;;;16.60;41.88
81397;BME280;70852;49.908;8.126;2024-03-23T09:26:47;99761.63;;;16.80;41.10
81397;BME280;70852;49.908;8.126;2024-03-23T09:29:12;99769.16;;;15.72;42.24
81397;BME280;70852;49.908;8.126;2024-03-23T09:31:40;99762.16;;;16.63;38.89
81397;BME280;70852;49.908;8.126;2024-03-23T09:34:06;99766.34;;;15.18;42.74
81397;BME280;70852;49.908;8.126;2024-03-23T09:36:31;99772.56;;;15.47;41.12
81397;BME280;70852;49.908;8.126;2024-03-23T09:38:56;99766.59;;;15.48;41.31
81397;BME280;70852;49.908;8.126;2024-03-23T09:41:22;99766.13;;;15.81;40.75
81397;BME280;70852;49.908;8.126;2024-03-23T09:43:47;99790.66;;;15.06;41.88
81397;BME280;70852;49.908;8.126;2024-03-23T09:46:17;99779.47;;;14.86;41.05
81397;BME280;70852;49.908;8.126;2024-03-23T09:48:48;99788.41;;;14.33;41.90
81397;BME280;70852;49.908;8.126;2024-03-23T09:51:14;99790.66;;;16.56;39.88
81397;BME280;70852;49.908;8.126;2024-03-23T09:53:39;99796.50;;;13.54;41.73
81397;BME280;70852;49.908;8.126;2024-03-23T09:56:04;99791.25;;;11.86;46.13
81397;BME280;70852;49.908;8.126;2024-03-23T09:58:34;99793.53;;;11.63;45.84
81397;BME280;70852;49.908;8.126;2024-03-23T10:00:59;99790.75;;;13.35;43.61
81397;BME280;70852;49.908;8.126;2024-03-23T10:03:28;99784.41;;;12.49;45.35
81397;BME280;70852;49.908;8.126;2024-03-23T10:06:03;99793.25;;;11.77;46.94
81397;BME280;70852;49.908;8.126;2024-03-23T10:08:30;99793.94;;;11.32;47.14
81397;BME280;70852;49.908;8.126;2024-03-23T10:11:14;99799.25;;;11.99;47.26
81397;BME280;70852;49.908;8.126;2024-03-23T10:13:46;99806.47;;;11.92;48.44
81397;BME280;70852;49.908;8.126;2024-03-23T10:16:21;99837.75;;;11.21;50.03
81397;BME280;70852;49.908;8.126;2024-03-23T10:18:48;99886.19;;;9.17;55.48
81397;BME280;70852;49.908;8.126;2024-03-23T10:21:16;99904.72;;;7.74;61.16
81397;BME280;70852;49.908;8.126;2024-03-23T10:23:43;99907.63;;;6.73;67.07
81397;BME280;70852;49.908;8.126;2024-03-23T10:26:19;99903.28;;;6.07;71.11
81397;BME280;70852;49.908;8.126;2024-03-23T10:29:00;99910.56;;;5.98;73.82
81397;BME280;70852;49.908;8.126;2024-03-23T10:31:33;99912.78;;;5.96;75.59
81397;BME280;70852;49.908;8.126;2024-03-23T10:34:02;99907.53;;;6.00;76.40
81397;BME280;70852;49.908;8.126;2024-03-23T10:36:30;99911.09;;;6.00;76.45
81397;BME280;70852;49.908;8.126;2024-03-23T10:38:58;99912.84;;;6.10;76.46
81397;BME280;70852;49.908;8.126;2024-03-23T10:41:27;99908.69;;;5.94;77.95
81397;BME280;70852;49.908;8.126;2024-03-23T10:43:55;99908.63;;;5.99;76.58
81397;BME280;70852;49.908;8.126;2024-03-23T10:46:22;99899.28;;;5.62;76.31
81397;BME280;70852;49.908;8.126;2024-03-23T10:48:50;99898.34;;;5.72;77.46
81397;BME280;70852;49.908;8.126;2024-03-23T10:51:18;99886.47;;;5.76;77.62
81397;BME280;70852;49.908;8.126;2024-03-23T10:53:45;99907.03;;;5.36;78.36
81397;BME280;70852;49.908;8.126;2024-03-23T10:56:12;99908.47;;;4.86;77.91
81397;BME280;70852;49.908;8.126;2024-03-23T10:58:41;99890.81;;;4.73;79.93
81397;BME280;70852;49.908;8.126;2024-03-23T11:01:10;99880.38;;;4.99;79.33
81397;BME280;70852;49.908;8.126;2024-03-23T11:03:39;99849.44;;;5.41;78.61
81397;BME280;70852;49.908;8.126;2024-03-23T11:06:06;99834.25;;;5.86;76.63
81397;BME280;70852;49.908;8.126;2024-03-23T11:08:38;99810.81;;;6.13;75.08
81397;BME280;70852;49.908;8.126;2024-03-23T11:11:19;99811.06;;;6.57;75.73
81397;BME280;70852;49.908;8.126;2024-03-23T11:13:48;99809.59;;;7.15;72.93
81397;BME280;70852;49.908;8.126;2024-03-23T11:16:21;99789.94;;;10.91;62.19
81397;BME280;70852;49.908;8.126;2024-03-23T11:18:46;99771.50;;;14.10;55.69
81397;BME280;70852;49.908;8.126;2024-03-23T11:21:51;99763.97;;;15.01;49.77
81397;BME280;70852;49.908;8.126;2024-03-23T11:24:22;99764.47;;;15.96;50.24
81397;BME280;70852;49.908;8.126;2024-03-23T11:26:49;99763.31;;;15.08;49.69
81397;BME280;70852;49.908;8.126;2024-03-23T11:29:16;99762.63;;;15.65;44.38
81397;BME280;70852;49.908;8.126;2024-03-23T11:31:49;99772.47;;;15.08;46.19
81397;BME280;70852;49.908;8.126;2024-03-23T11:34:18;99769.34;;;14.62;48.06
81397;BME280;70852;49.908;8.126;2024-03-23T11:36:44;99775.81;;;14.07;47.98
81397;BME280;70852;49.908;8.126;2024-03-23T11:39:22;99772.81;;;14.28;48.67
81397;BME280;70852;49.908;8.126;2024-03-23T11:41:56;99759.06;;;14.79;47.64
81397;BME280;70852;49.908;8.126;2024-03-23T11:44:23;99751.72;;;15.21;47.66
81397;BME280;70852;49.908;8.126;2024-03-23T11:46:50;99754.06;;;15.38;46.79
81397;BME280;70852;49.908;8.126;2024-03-23T11:51:49;99734.75;;;15.46;45.93
81397;BME280;70852;49.908;8.126;2024-03-23T11:54:15;99737.19;;;14.61;47.52
81397;BME280;70852;49.908;8.126;2024-03-23T11:57:09;99733.59;;;14.77;46.39
81397;BME280;70852;49.908;8.126;2024-03-23T11:59:36;99725.69;;;14.79;44.36
81397;BME280;70852;49.908;8.126;2024-03-23T12:02:11;99726.84;;;15.48;45.83
81397;BME280;70852;49.908;8.126;2024-03-23T12:04:40;99722.91;;;15.68;42.68
81397;BME280;70852;49.908;8.126;2024-03-23T12:07:18;99719.25;;;15.64;43.31
81397;BME280;70852;49.908;8.126;2024-03-23T12:09:44;99706.88;;;15.61;45.28
81397;BME280;70852;49.908;8.126;2024-03-23T12:12:14;99706.66;;;16.80;42.89
81397;BME280;70852;49.908;8.126;2024-03-23T12:14:45;99696.25;;;16.32;41.71
81397;BME280;70852;49.908;8.126;2024-03-23T12:17:28;99703.50;;;14.47;45.71
81397;BME280;70852;49.908;8.126;2024-03-23T12:19:54;99702.59;;;13.56;47.17
81397;BME280;70852;49.908;8.126;2024-03-23T12:22:23;99700.81;;;12.71;47.28
81397;BME280;70852;49.908;8.126;2024-03-23T12:24:53;99686.53;;;12.33;49.36
81397;BME280;70852;49.908;8.126;2024-03-23T12:27:21;99691.47;;;12.52;50.90
81397;BME280;70852;49.908;8.126;2024-03-23T12:29:49;99682.66;;;11.89;49.53
81397;BME280;70852;49.908;8.126;2024-03-23T12:32:14;99673.09;;;11.65;52.01
81397;BME280;70852;49.908;8.126;2024-03-23T12:34:45;99685.09;;;11.36;52.10
81397;BME280;70852;49.908;8.126;2024-03-23T12:37:14;99701.88;;;10.69;53.08
81397;BME280;70852;49.908;8.126;2024-03-23T12:39:41;99765.66;;;9.40;60.51
81397;BME280;70852;49.908;8.126;2024-03-23T12:42:07;99776.16;;;8.24;68.18
81397;BME280;70852;49.908;8.126;2024-03-23T12:44:32;99793.25;;;7.46;72.94
81397;BME280;70852;49.908;8.126;2024-03-23T12:46:59;99808.78;;;7.28;74.23
81397;BME280;70852;49.908;8.126;2024-03-23T12:49:27;99804.50;;;7.58;75.49
81397;BME280;70852;49.908;8.126;2024-03-23T12:51:56;99798.31;;;7.52;74.18
81397;BME280;70852;49.908;8.126;2024-03-23T12:54:24;99797.59;;;7.60;73.65
81397;BME280;70852;49.908;8.126;2024-03-23T12:56:51;99786.97;;;8.21;71.17
81397;BME280;70852;49.908;8.126;2024-03-23T12:59:19;99775.03;;;10.84;64.19
81397;BME280;70852;49.908;8.126;2024-03-23T13:01:49;99757.28;;;12.91;58.02
81397;BME280;70852;49.908;8.126;2024-03-23T13:04:15;99752.50;;;14.87;52.33
81397;BME280;70852;49.908;8.126;2024-03-23T13:06:41;99747.41;;;15.24;50.74
81397;BME280;70852;49.908;8.126;2024-03-23T13:09:06;99748.66;;;14.60;51.07
81397;BME280;70852;49.908;8.126;2024-03-23T13:11:36;99731.69;;;15.70;48.23
81397;BME280;70852;49.908;8.126;2024-03-23T13:14:04;99741.59;;;15.87;48.03
81397;BME280;70852;49.908;8.126;2024-03-23T13:16:29;99754.31;;;13.48;49.61
81397;BME280;70852;49.908;8.126;2024-03-23T13:18:57;99760.53;;;12.69;52.21
81397;BME280;70852;49.908;8.126;2024-03-23T13:21:22;99752.44;;;12.88;52.21
81397;BME280;70852;49.908;8.126;2024-03-23T13:23:48;99747.56;;;12.61;53.00
81397;BME280;70852;49.908;8.126;2024-03-23T13:26:15;99754.03;;;10.91;57.34
81397;BME280;70852;49.908;8.126;2024-03-23T13:28:45;99749.00;;;11.77;56.53
81397;BME280;70852;49.908;8.126;2024-03-23T13:31:10;99737.28;;;13.22;53.25
81397;BME280;70852;49.908;8.126;2024-03-23T13:33:36;99743.84;;;11.87;55.76
81397;BME280;70852;49.908;8.126;2024-03-23T13:36:01;99733.69;;;13.22;52.35
81397;BME280;70852;49.908;8.126;2024-03-23T13:38:30;99714.53;;;14.94;49.57
81397;BME280;70852;49.908;8.126;2024-03-23T13:40:57;99707.78;;;15.11;47.89
81397;BME280;70852;49.908;8.126;2024-03-23T13:43:23;99718.50;;;13.71;49.49
81397;BME280;70852;49.908;8.126;2024-03-23T13:45:54;99717.09;;;12.85;50.26
81397;BME280;70852;49.908;8.126;2024-03-23T13:48:21;99706.00;;;15.03;46.86
81397;BME280;70852;49.908;8.126;2024-03-23T13:50:47;99698.88;;;15.79;42.41
81397;BME280;70852;49.908;8.126;2024-03-23T13:53:17;99701.84;;;15.67;40.58
81397;BME280;70852;49.908;8.126;2024-03-23T13:55:47;99717.38;;;13.32;43.09
81397;BME280;70852;49.908;8.126;2024-03-23T13:58:15;99713.28;;;11.09;49.29
81397;BME280;70852;49.908;8.126;2024-03-23T14:00:41;99727.25;;;10.24;50.74
81397;BME280;70852;49.908;8.126;2024-03-23T14:03:13;99714.22;;;10.63;52.60
81397;BME280;70852;49.908;8.126;2024-03-23T14:05:39;99723.06;;;10.01;52.96
81397;BME280;70852;49.908;8.126;2024-03-23T14:08:10;99719.94;;;9.30;56.01